createdAt,value
2018-10-15T00:00:19.230Z,64.60
2018-10-15T00:02:47.461Z,65.00
2018-10-15T00:05:15.950Z,65.10
2018-10-15T00:07:44.150Z,65.70
2018-10-15T00:10:12.383Z,66.40
2018-10-15T00:12:40.619Z,66.80
2018-10-15T00:15:19.172Z,67.20
2018-10-15T00:17:47.469Z,67.40
2018-10-15T00:20:15.725Z,67.50
2018-10-15T00:22:43.926Z,67.40
2018-10-15T00:25:12.255Z,66.80
2018-10-15T00:27:40.839Z,66.70
2018-10-15T00:30:10.379Z,66.30
2018-10-15T00:32:38.967Z,65.90
2018-10-15T00:35:07.844Z,65.70
2018-10-15T00:37:36.633Z,65.40
2018-10-15T00:40:04.839Z,64.90
2018-10-15T00:42:33.671Z,64.80
2018-10-15T00:45:01.963Z,64.50
2018-10-15T00:47:30.220Z,64.20
2018-10-15T00:49:58.527Z,64.00
2018-10-15T00:52:26.771Z,63.70
2018-10-15T00:54:55.059Z,63.50
2018-10-15T00:57:23.274Z,63.90
2018-10-15T00:59:51.566Z,63.00
2018-10-15T01:02:19.804Z,62.80
2018-10-15T01:04:48.087Z,63.00
2018-10-15T01:07:16.351Z,63.00
2018-10-15T01:09:44.611Z,63.00
2018-10-15T01:12:12.835Z,63.50
2018-10-15T01:14:41.052Z,64.00
2018-10-15T01:17:09.284Z,64.30
2018-10-15T01:19:37.508Z,64.40
2018-10-15T01:22:05.971Z,63.90
2018-10-15T01:24:34.278Z,63.50
2018-10-15T01:27:02.550Z,63.40
2018-10-15T01:29:30.787Z,63.90
2018-10-15T01:31:59.001Z,64.00
2018-10-15T01:34:27.205Z,64.70
2018-10-15T01:36:55.436Z,64.90
2018-10-15T01:39:23.684Z,64.80
2018-10-15T01:41:51.909Z,64.90
2018-10-15T01:44:20.140Z,65.10
2018-10-15T01:46:48.363Z,64.90
2018-10-15T01:49:16.644Z,64.90
2018-10-15T01:51:44.912Z,65.20
2018-10-15T01:54:13.120Z,65.20
2018-10-15T01:56:41.417Z,65.50
2018-10-15T01:59:09.626Z,66.00
2018-10-15T02:01:37.867Z,65.60
2018-10-15T02:04:06.079Z,65.80
2018-10-15T02:06:34.278Z,65.50
2018-10-15T02:09:02.506Z,65.80
2018-10-15T02:11:30.730Z,66.40
2018-10-15T02:13:58.962Z,65.70
2018-10-15T02:16:27.276Z,66.00
2018-10-15T02:18:55.475Z,65.20
2018-10-15T02:21:23.704Z,64.70
2018-10-15T02:23:51.907Z,64.70
2018-10-15T02:26:20.120Z,64.80
2018-10-15T02:28:48.367Z,65.10
2018-10-15T02:31:16.573Z,65.50
2018-10-15T02:33:44.767Z,66.00
2018-10-15T02:36:13.002Z,66.10
2018-10-15T02:38:41.211Z,65.90
2018-10-15T02:41:09.543Z,66.10
2018-10-15T02:43:37.796Z,66.10
2018-10-15T02:46:06.066Z,65.70
2018-10-15T02:48:34.291Z,66.10
2018-10-15T02:51:02.520Z,65.90
2018-10-15T02:53:30.744Z,66.00
2018-10-15T02:56:05.803Z,66.00
2018-10-15T02:58:34.014Z,66.20
2018-10-15T03:01:02.223Z,66.90
2018-10-15T03:03:30.555Z,67.10
2018-10-15T03:05:58.791Z,66.40
2018-10-15T03:08:26.991Z,66.40
2018-10-15T03:10:55.254Z,66.40
2018-10-15T03:13:23.450Z,65.90
2018-10-15T03:15:51.678Z,66.10
2018-10-15T03:18:19.949Z,66.20
2018-10-15T03:20:48.180Z,66.30
2018-10-15T03:23:16.420Z,66.30
2018-10-15T03:25:44.674Z,66.90
2018-10-15T03:28:12.883Z,66.90
2018-10-15T03:30:41.098Z,66.70
2018-10-15T03:33:09.326Z,66.50
2018-10-15T03:35:37.519Z,66.20
2018-10-15T03:38:05.752Z,66.10
2018-10-15T03:40:33.955Z,65.80
2018-10-15T03:43:02.236Z,65.80
2018-10-15T03:45:30.487Z,65.40
2018-10-15T03:47:58.740Z,65.90
2018-10-15T03:50:27.064Z,65.90
2018-10-15T03:52:55.313Z,66.00
2018-10-15T03:55:23.571Z,65.80
2018-10-15T03:57:51.783Z,65.80
2018-10-15T04:00:20.042Z,65.90
2018-10-15T04:02:48.283Z,65.80
2018-10-15T04:05:16.530Z,65.50
2018-10-15T04:07:44.731Z,65.70
2018-10-15T04:10:12.964Z,65.90
2018-10-15T04:12:41.201Z,66.50
2018-10-15T04:15:09.986Z,66.60
2018-10-15T04:17:38.443Z,67.00
2018-10-15T04:20:07.655Z,66.90
2018-10-15T04:22:41.200Z,67.00
2018-10-15T04:25:09.549Z,66.60
2018-10-15T04:27:37.799Z,66.10
2018-10-15T04:30:06.055Z,65.80
2018-10-15T04:32:34.308Z,65.60
2018-10-15T04:35:02.572Z,65.60
2018-10-15T04:37:30.860Z,65.70
2018-10-15T04:39:59.132Z,66.30
2018-10-15T04:42:27.362Z,66.00
2018-10-15T04:44:55.611Z,65.80
2018-10-15T04:47:23.900Z,66.10
2018-10-15T04:49:52.354Z,67.40
2018-10-15T04:52:20.571Z,67.30
2018-10-15T04:54:48.814Z,69.10
2018-10-15T04:57:17.036Z,69.00
2018-10-15T04:59:45.252Z,69.00
2018-10-15T05:02:13.673Z,68.70
2018-10-15T05:04:41.867Z,68.40
2018-10-15T05:07:10.155Z,68.70
2018-10-15T05:09:38.688Z,68.60
2018-10-15T05:12:07.082Z,68.30
2018-10-15T05:14:35.248Z,68.10
2018-10-15T05:17:03.523Z,67.70
2018-10-15T05:19:31.699Z,66.90
2018-10-15T05:21:59.940Z,66.80
2018-10-15T05:24:28.258Z,67.30
2018-10-15T05:26:56.495Z,67.10
2018-10-15T05:29:24.775Z,66.90
2018-10-15T05:31:52.996Z,67.40
2018-10-15T05:34:21.234Z,67.70
2018-10-15T05:36:49.741Z,68.00
2018-10-15T05:39:18.041Z,68.10
2018-10-15T05:41:46.275Z,68.10
2018-10-15T05:44:14.583Z,67.70
2018-10-15T05:46:43.029Z,67.20
2018-10-15T05:49:11.131Z,67.30
2018-10-15T05:51:39.417Z,66.90
2018-10-15T05:54:07.714Z,66.40
2018-10-15T05:56:35.892Z,66.40
2018-10-15T05:59:04.210Z,66.80
2018-10-15T06:01:32.424Z,66.30
2018-10-15T06:04:00.655Z,66.10
2018-10-15T06:06:28.897Z,66.10
2018-10-15T06:08:57.187Z,66.10
2018-10-15T06:11:25.398Z,66.10
2018-10-15T06:13:53.590Z,66.30
2018-10-15T06:16:21.842Z,67.00
2018-10-15T06:18:50.038Z,67.30
2018-10-15T06:21:18.283Z,66.90
2018-10-15T06:23:46.580Z,65.10
2018-10-15T06:26:14.833Z,64.80
2018-10-15T06:28:43.090Z,64.70
2018-10-15T06:31:11.318Z,64.60
2018-10-15T06:33:39.669Z,64.80
2018-10-15T06:36:07.916Z,64.60
2018-10-15T06:38:36.127Z,64.90
2018-10-15T06:41:04.421Z,64.50
2018-10-15T06:43:32.645Z,64.40
2018-10-15T06:46:00.850Z,63.80
2018-10-15T06:48:29.063Z,64.40
2018-10-15T06:50:57.259Z,63.10
2018-10-15T06:53:25.681Z,62.60
2018-10-15T06:55:53.866Z,62.10
2018-10-15T06:58:22.054Z,61.60
2018-10-15T07:00:50.303Z,61.00
2018-10-15T07:03:18.680Z,60.10
2018-10-15T07:05:47.018Z,59.40
2018-10-15T07:08:15.256Z,58.60
2018-10-15T07:10:43.453Z,57.50
2018-10-15T07:13:11.873Z,55.30
2018-10-15T07:15:40.029Z,54.40
2018-10-15T07:18:08.342Z,53.50
2018-10-15T07:20:36.605Z,51.80
2018-10-15T07:23:04.875Z,51.20
2018-10-15T07:25:33.109Z,50.70
2018-10-15T07:28:01.749Z,49.60
2018-10-15T07:30:31.714Z,48.30
2018-10-15T07:32:59.951Z,47.20
2018-10-15T07:35:28.184Z,44.60
2018-10-15T07:37:56.398Z,43.00
2018-10-15T07:40:24.732Z,42.20
2018-10-15T07:42:53.026Z,42.20
2018-10-15T07:45:21.288Z,41.30
2018-10-15T07:47:49.552Z,41.00
2018-10-15T07:50:17.890Z,41.20
2018-10-15T07:52:46.470Z,41.00
2018-10-15T07:55:14.751Z,40.00
2018-10-15T07:57:43.356Z,41.10
2018-10-15T08:00:17.530Z,39.70
2018-10-15T08:02:46.155Z,40.00
2018-10-15T08:05:14.654Z,40.10
2018-10-15T08:07:43.447Z,39.20
2018-10-15T08:10:12.243Z,39.00
2018-10-15T08:12:40.870Z,37.10
2018-10-15T08:15:10.684Z,36.30
2018-10-15T08:17:38.843Z,35.50
2018-10-15T08:20:09.126Z,35.10
2018-10-15T08:22:37.475Z,35.50
2018-10-15T08:25:06.195Z,34.90
2018-10-15T08:27:34.663Z,34.70
2018-10-15T08:30:02.968Z,35.20
2018-10-15T08:32:31.153Z,35.20
2018-10-15T08:34:59.420Z,35.50
2018-10-15T08:37:27.604Z,34.40
2018-10-15T08:39:55.854Z,35.00
2018-10-15T08:42:24.023Z,35.30
2018-10-15T08:44:52.298Z,35.50
2018-10-15T08:47:20.506Z,34.70
2018-10-15T08:49:48.778Z,35.10
2018-10-15T08:52:17.028Z,34.40
2018-10-15T08:54:45.231Z,32.60
2018-10-15T08:57:13.475Z,33.60
2018-10-15T08:59:41.735Z,34.20
2018-10-15T09:02:09.925Z,33.40
2018-10-15T09:04:38.131Z,32.90
2018-10-15T09:07:06.777Z,32.80
2018-10-15T09:09:34.954Z,32.20
2018-10-15T09:12:03.224Z,32.80
2018-10-15T09:14:31.440Z,33.40
2018-10-15T09:16:59.687Z,32.50
2018-10-15T09:19:27.947Z,32.20
2018-10-15T09:21:56.279Z,31.70
2018-10-15T09:24:24.476Z,30.80
2018-10-15T09:26:52.757Z,31.00
2018-10-15T09:29:20.926Z,30.90
2018-10-15T09:31:49.147Z,30.80
2018-10-15T09:34:17.360Z,30.00
2018-10-15T09:36:45.621Z,30.20
2018-10-15T09:39:14.351Z,30.50
2018-10-15T09:41:42.662Z,28.80
2018-10-15T09:44:10.855Z,29.00
2018-10-15T09:46:39.098Z,28.80
2018-10-15T09:49:07.334Z,28.60
2018-10-15T09:51:35.520Z,28.00
2018-10-15T09:54:04.086Z,27.70
2018-10-15T09:56:32.668Z,26.80
2018-10-15T09:59:01.100Z,26.70
2018-10-15T10:01:33.579Z,26.50
2018-10-15T10:04:01.846Z,25.50
2018-10-15T10:06:30.069Z,26.00
2018-10-15T10:08:58.448Z,26.40
2018-10-15T10:11:26.627Z,26.80
2018-10-15T10:13:54.865Z,27.00
2018-10-15T10:16:23.092Z,27.30
2018-10-15T10:18:51.323Z,27.20
2018-10-15T10:21:19.535Z,27.40
2018-10-15T10:23:47.833Z,27.40
2018-10-15T10:26:16.030Z,28.10
2018-10-15T10:28:44.384Z,27.60
2018-10-15T10:31:12.578Z,27.90
2018-10-15T10:34:19.396Z,27.30
2018-10-15T10:36:54.512Z,27.80
2018-10-15T10:39:22.673Z,27.90
2018-10-15T10:41:50.975Z,28.20
2018-10-15T10:44:19.189Z,28.10
2018-10-15T10:46:47.465Z,27.20
2018-10-15T10:49:15.705Z,27.20
2018-10-15T10:51:43.991Z,26.90
2018-10-15T10:54:12.290Z,27.50
2018-10-15T10:56:40.642Z,27.80
2018-10-15T10:59:08.803Z,27.20
2018-10-15T11:01:37.131Z,27.80
2018-10-15T11:04:05.600Z,28.10
2018-10-15T11:06:33.887Z,28.20
2018-10-15T11:09:02.172Z,28.40
2018-10-15T11:11:32.397Z,28.10
2018-10-15T11:14:01.576Z,27.50
2018-10-15T11:16:29.864Z,27.50
2018-10-15T11:18:58.161Z,27.10
2018-10-15T11:21:26.359Z,26.70
2018-10-15T11:23:54.612Z,24.00
2018-10-15T11:26:22.852Z,24.20
2018-10-15T11:28:51.126Z,25.20
2018-10-15T11:31:19.327Z,25.70
2018-10-15T11:33:47.638Z,26.50
2018-10-15T11:36:15.859Z,27.10
2018-10-15T11:38:44.185Z,26.70
2018-10-15T11:41:12.518Z,26.80
2018-10-15T11:43:40.793Z,26.50
2018-10-15T11:46:09.021Z,26.80
2018-10-15T11:48:37.288Z,25.90
2018-10-15T11:51:05.566Z,26.00
2018-10-15T11:53:33.887Z,26.80
2018-10-15T11:56:02.099Z,27.20
2018-10-15T11:58:30.395Z,26.90
2018-10-15T12:00:58.567Z,27.00
2018-10-15T12:03:26.811Z,27.10
2018-10-15T12:05:55.210Z,27.10
2018-10-15T12:08:23.491Z,26.70
2018-10-15T12:10:51.741Z,27.10
2018-10-15T12:13:19.978Z,27.10
2018-10-15T12:15:48.199Z,27.40
2018-10-15T12:18:16.603Z,28.20
2018-10-15T12:20:44.835Z,28.30
2018-10-15T12:23:13.127Z,28.30
2018-10-15T12:25:41.412Z,28.70
2018-10-15T12:28:09.694Z,28.80
2018-10-15T12:30:37.939Z,28.80
2018-10-15T12:33:06.262Z,28.80
2018-10-15T12:35:34.740Z,28.80
2018-10-15T12:38:03.142Z,28.00
2018-10-15T12:40:31.434Z,28.10
2018-10-15T12:42:59.789Z,27.90
2018-10-15T12:45:33.390Z,27.80
2018-10-15T12:48:01.653Z,27.60
2018-10-15T12:50:29.883Z,27.90
2018-10-15T12:52:58.283Z,28.00
2018-10-15T12:55:26.478Z,27.10
2018-10-15T12:57:54.670Z,27.20
2018-10-15T13:00:24.116Z,27.30
2018-10-15T13:02:52.337Z,25.90
2018-10-15T13:05:25.638Z,26.40
2018-10-15T13:07:54.883Z,26.20
2018-10-15T13:10:23.511Z,26.80
2018-10-15T13:12:51.752Z,28.30
2018-10-15T13:15:20.470Z,28.40
2018-10-15T13:17:48.712Z,27.90
2018-10-15T13:20:16.952Z,28.00
2018-10-15T13:22:45.204Z,27.90
2018-10-15T13:25:13.447Z,27.20
2018-10-15T13:27:41.906Z,25.70
2018-10-15T13:30:13.203Z,25.20
2018-10-15T13:32:41.883Z,25.40
2018-10-15T13:35:17.320Z,25.70
2018-10-15T13:37:46.264Z,25.10
2018-10-15T13:40:14.499Z,24.80
2018-10-15T13:42:42.919Z,25.00
2018-10-15T13:45:12.250Z,25.00
2018-10-15T13:47:40.535Z,24.50
2018-10-15T13:50:09.650Z,24.20
2018-10-15T13:52:38.675Z,24.30
2018-10-15T13:55:07.948Z,24.60
2018-10-15T13:57:36.322Z,23.80
2018-10-15T14:00:16.536Z,23.90
2018-10-15T14:02:44.826Z,23.80
2018-10-15T14:05:13.123Z,24.10
2018-10-15T14:07:41.457Z,24.00
2018-10-15T14:10:10.489Z,23.90
2018-10-15T14:12:39.287Z,23.90
2018-10-15T14:15:07.535Z,23.60
2018-10-15T14:17:35.807Z,23.80
2018-10-15T14:20:04.277Z,24.00
2018-10-15T14:22:32.486Z,23.40
2018-10-15T14:25:00.806Z,23.60
2018-10-15T14:27:29.019Z,23.60
2018-10-15T14:29:57.224Z,23.40
2018-10-15T14:32:25.467Z,23.10
2018-10-15T14:34:53.774Z,22.90
2018-10-15T14:37:21.959Z,22.80
2018-10-15T14:39:50.211Z,22.90
2018-10-15T14:42:18.783Z,23.30
2018-10-15T14:44:46.994Z,22.90
2018-10-15T14:47:15.268Z,22.70
2018-10-15T14:49:43.585Z,23.40
2018-10-15T14:52:11.784Z,23.00
2018-10-15T14:54:40.087Z,23.30
2018-10-15T14:57:08.315Z,24.00
2018-10-15T14:59:36.508Z,24.20
2018-10-15T15:02:05.128Z,23.80
2018-10-15T15:04:33.371Z,23.40
2018-10-15T15:07:01.968Z,23.80
2018-10-15T15:09:41.531Z,23.80
2018-10-15T15:12:21.146Z,23.60
2018-10-15T15:14:49.338Z,23.20
2018-10-15T15:17:17.574Z,22.80
2018-10-15T15:19:45.854Z,23.00
2018-10-15T15:22:14.031Z,23.00
2018-10-15T15:24:42.256Z,23.20
2018-10-15T15:27:10.461Z,23.40
2018-10-15T15:29:38.711Z,23.40
2018-10-15T15:32:07.026Z,23.60
2018-10-15T15:34:35.273Z,23.90
2018-10-15T15:37:04.394Z,24.20
2018-10-15T15:39:32.824Z,24.40
2018-10-15T15:42:01.432Z,24.80
2018-10-15T15:44:29.727Z,25.30
2018-10-15T15:46:58.551Z,25.70
2018-10-15T15:49:27.047Z,26.00
2018-10-15T15:51:55.280Z,26.20
2018-10-15T15:54:23.506Z,26.60
2018-10-15T15:56:52.349Z,27.00
2018-10-15T15:59:21.087Z,27.50
2018-10-15T16:01:50.190Z,27.70
2018-10-15T16:04:18.477Z,28.00
2018-10-15T16:06:46.735Z,28.30
2018-10-15T16:09:20.252Z,29.10
2018-10-15T16:11:49.090Z,28.80
2018-10-15T16:14:17.399Z,28.90
2018-10-15T16:16:45.691Z,29.10
2018-10-15T16:19:14.215Z,29.30
2018-10-15T16:21:42.779Z,29.10
2018-10-15T16:24:11.020Z,28.90
2018-10-15T16:26:39.299Z,29.10
2018-10-15T16:29:07.631Z,29.10
2018-10-15T16:31:35.911Z,29.10
2018-10-15T16:34:04.206Z,29.00
2018-10-15T16:36:32.572Z,28.90
2018-10-15T16:39:00.919Z,28.80
2018-10-15T16:41:29.370Z,28.80
2018-10-15T16:43:57.654Z,28.90
2018-10-15T16:46:26.115Z,28.80
2018-10-15T16:48:54.379Z,28.90
2018-10-15T16:51:22.764Z,29.00
2018-10-15T16:53:51.027Z,29.00
2018-10-15T16:56:19.231Z,29.10
2018-10-15T16:58:47.679Z,29.30
2018-10-15T17:01:16.841Z,29.90
2018-10-15T17:03:45.651Z,29.90
2018-10-15T17:06:14.014Z,30.00
2018-10-15T17:08:42.317Z,30.00
2018-10-15T17:11:10.663Z,30.40
2018-10-15T17:13:38.976Z,31.00
2018-10-15T17:16:07.636Z,31.30
2018-10-15T17:18:35.979Z,31.90
2018-10-15T17:21:04.698Z,32.10
2018-10-15T17:23:32.882Z,32.50
2018-10-15T17:26:01.597Z,32.70
2018-10-15T17:28:29.965Z,33.00
2018-10-15T17:30:58.174Z,33.10
2018-10-15T17:33:26.457Z,34.00
2018-10-15T17:35:54.723Z,34.00
2018-10-15T17:38:24.134Z,34.50
2018-10-15T17:40:52.530Z,34.50
2018-10-15T17:43:20.823Z,34.80
2018-10-15T17:45:49.108Z,34.80
2018-10-15T17:48:17.403Z,34.60
2018-10-15T17:50:45.765Z,34.90
2018-10-15T17:53:14.035Z,35.40
2018-10-15T17:55:42.344Z,35.90
2018-10-15T17:58:10.828Z,36.50
2018-10-15T18:00:40.329Z,36.60
2018-10-15T18:03:08.899Z,36.80
2018-10-15T18:05:37.148Z,37.20
2018-10-15T18:08:06.720Z,37.30
2018-10-15T18:10:35.072Z,37.70
2018-10-15T18:13:04.090Z,38.10
2018-10-15T18:15:32.562Z,38.40
2018-10-15T18:18:00.925Z,38.70
2018-10-15T18:20:29.236Z,39.00
2018-10-15T18:22:57.550Z,39.60
2018-10-15T18:25:25.752Z,39.70
2018-10-15T18:27:54.014Z,40.20
2018-10-15T18:30:23.308Z,40.10
2018-10-15T18:32:51.715Z,40.60
2018-10-15T18:35:20.034Z,40.80
2018-10-15T18:37:48.408Z,41.20
2018-10-15T18:40:16.728Z,41.30
2018-10-15T18:42:45.136Z,41.50
2018-10-15T18:45:13.397Z,42.00
2018-10-15T18:47:42.004Z,42.30
2018-10-15T18:50:11.992Z,42.80
2018-10-15T18:52:40.371Z,43.10
2018-10-15T18:55:08.732Z,43.60
2018-10-15T18:57:37.030Z,44.10
2018-10-15T19:00:06.477Z,44.50
2018-10-15T19:02:34.957Z,44.70
2018-10-15T19:05:03.192Z,44.80
2018-10-15T19:07:31.589Z,45.10
2018-10-15T19:09:59.824Z,45.30
2018-10-15T19:12:28.219Z,45.20
2018-10-15T19:14:56.515Z,45.80
2018-10-15T19:17:24.832Z,45.80
2018-10-15T19:19:53.115Z,46.50
2018-10-15T19:22:21.420Z,47.00
2018-10-15T19:24:50.582Z,47.00
2018-10-15T19:27:18.898Z,47.30
2018-10-15T19:29:47.254Z,47.20
2018-10-15T19:32:15.568Z,47.40
2018-10-15T19:34:44.161Z,47.60
2018-10-15T19:37:12.729Z,47.70
2018-10-15T19:39:41.424Z,48.00
2018-10-15T19:42:10.466Z,48.10
2018-10-15T19:44:38.700Z,48.30
2018-10-15T19:47:07.013Z,48.20
2018-10-15T19:49:35.955Z,48.30
2018-10-15T19:52:04.383Z,48.20
2018-10-15T19:54:33.409Z,48.30
2018-10-15T19:57:02.317Z,48.80
2018-10-15T19:59:30.572Z,48.70
2018-10-15T20:01:58.855Z,48.80
2018-10-15T20:04:27.198Z,49.00
2018-10-15T20:06:55.515Z,49.20
2018-10-15T20:09:23.839Z,49.30
2018-10-15T20:11:52.088Z,49.50
2018-10-15T20:14:20.361Z,49.50
2018-10-15T20:16:48.620Z,49.60
2018-10-15T20:19:16.957Z,49.90
2018-10-15T20:21:45.167Z,49.90
2018-10-15T20:24:13.439Z,50.10
2018-10-15T20:26:48.823Z,50.40
2018-10-15T20:29:23.760Z,50.70
2018-10-15T20:31:52.044Z,50.90
2018-10-15T20:34:20.435Z,50.90
2018-10-15T20:36:48.760Z,51.10
2018-10-15T20:39:17.052Z,51.60
2018-10-15T20:41:45.472Z,51.80
2018-10-15T20:44:13.782Z,52.00
2018-10-15T20:46:42.741Z,52.20
2018-10-15T20:49:11.072Z,52.10
2018-10-15T20:51:39.363Z,52.20
2018-10-15T20:54:08.205Z,52.30
2018-10-15T20:56:36.534Z,52.50
2018-10-15T20:59:04.807Z,52.70
2018-10-15T21:01:33.265Z,53.30
2018-10-15T21:04:01.692Z,53.70
2018-10-15T21:06:29.943Z,54.10
2018-10-15T21:08:58.264Z,54.20
2018-10-15T21:11:26.547Z,54.00
2018-10-15T21:13:54.847Z,54.10
2018-10-15T21:16:23.179Z,54.30
2018-10-15T21:18:52.378Z,54.50
2018-10-15T21:21:20.683Z,54.80
2018-10-15T21:23:49.037Z,55.00
2018-10-15T21:26:17.247Z,55.00
2018-10-15T21:28:45.516Z,55.00
2018-10-15T21:31:13.781Z,54.60
2018-10-15T21:33:42.141Z,54.40
2018-10-15T21:36:10.440Z,55.00
2018-10-15T21:38:38.722Z,55.30
2018-10-15T21:41:07.074Z,55.60
2018-10-15T21:43:35.410Z,55.80
2018-10-15T21:46:03.945Z,55.70
2018-10-15T21:48:32.017Z,55.20
2018-10-15T21:51:00.299Z,55.00
2018-10-15T21:53:28.585Z,55.40
2018-10-15T21:55:56.999Z,55.40
2018-10-15T21:58:25.224Z,55.60
2018-10-15T22:00:54.234Z,55.40
2018-10-15T22:03:22.596Z,55.10
2018-10-15T22:05:50.821Z,54.70
2018-10-15T22:08:19.065Z,54.40
2018-10-15T22:10:47.319Z,54.30
2018-10-15T22:13:15.660Z,53.80
2018-10-15T22:15:43.899Z,53.60
2018-10-15T22:18:12.327Z,54.70
2018-10-15T22:20:40.562Z,55.40
2018-10-15T22:23:09.072Z,55.70
2018-10-15T22:25:37.288Z,55.40
2018-10-15T22:28:06.443Z,55.00
2018-10-15T22:30:34.791Z,54.70
2018-10-15T22:33:03.033Z,55.00
2018-10-15T22:35:31.385Z,55.70
2018-10-15T22:37:59.595Z,56.60
2018-10-15T22:40:28.008Z,57.00
2018-10-15T22:42:56.749Z,57.00
2018-10-15T22:45:24.978Z,56.80
2018-10-15T22:47:53.207Z,56.60
2018-10-15T22:50:22.027Z,56.40
2018-10-15T22:52:50.256Z,56.90
2018-10-15T22:55:18.474Z,57.90
2018-10-15T22:57:46.746Z,57.40
2018-10-15T23:00:17.805Z,57.20
2018-10-15T23:02:46.698Z,57.60
2018-10-15T23:05:15.353Z,57.60
2018-10-15T23:07:43.578Z,57.30
2018-10-15T23:10:17.179Z,57.40
2018-10-15T23:12:45.900Z,57.30
2018-10-15T23:15:14.139Z,57.10
2018-10-15T23:17:42.423Z,56.90
2018-10-15T23:20:10.623Z,57.10
2018-10-15T23:22:39.219Z,57.10
2018-10-15T23:25:08.444Z,57.20
2018-10-15T23:27:36.782Z,57.60
2018-10-15T23:30:05.709Z,57.70
2018-10-15T23:32:33.951Z,57.60
2018-10-15T23:35:02.142Z,57.50
2018-10-15T23:37:30.416Z,57.40
2018-10-15T23:39:58.643Z,57.20
2018-10-15T23:42:26.893Z,57.20
2018-10-15T23:44:55.146Z,57.50
2018-10-15T23:47:23.368Z,58.10
2018-10-15T23:49:51.613Z,58.80
2018-10-15T23:52:19.864Z,59.30
2018-10-15T23:54:48.063Z,60.20
2018-10-15T23:57:16.294Z,60.90
2018-10-15T23:59:44.497Z,61.20
